createdAt,value
2022-10-17T00:00:45.998Z,1.20
2022-10-17T00:03:13.668Z,1.13
2022-10-17T00:05:41.926Z,1.20
2022-10-17T00:08:09.616Z,1.13
2022-10-17T00:10:37.311Z,1.20
2022-10-17T00:13:06.462Z,1.10
2022-10-17T00:15:34.143Z,1.40
2022-10-17T00:18:01.932Z,1.15
2022-10-17T00:20:30.331Z,1.33
2022-10-17T00:22:58.056Z,1.20
2022-10-17T00:25:25.695Z,1.20
2022-10-17T00:27:53.396Z,1.35
2022-10-17T00:30:22.380Z,1.30
2022-10-17T00:32:50.022Z,1.20
2022-10-17T00:35:17.825Z,1.30
2022-10-17T00:37:45.459Z,1.30
2022-10-17T00:40:13.373Z,1.00
2022-10-17T00:42:41.056Z,1.20
2022-10-17T00:45:22.422Z,1.00
2022-10-17T00:47:52.548Z,1.10
2022-10-17T00:50:20.207Z,1.20
2022-10-17T00:52:48.090Z,1.27
2022-10-17T00:55:17.580Z,1.20
2022-10-17T00:57:45.322Z,1.10
2022-10-17T01:00:13.932Z,1.10
2022-10-17T01:02:43.583Z,1.10
2022-10-17T01:05:11.241Z,1.17
2022-10-17T01:07:39.480Z,1.10
2022-10-17T01:10:08.298Z,1.13
2022-10-17T01:12:46.672Z,1.35
2022-10-17T01:15:16.978Z,1.13
2022-10-17T01:17:53.825Z,1.17
2022-10-17T01:20:48.785Z,1.05
2022-10-17T01:23:30.247Z,1.00
2022-10-17T01:25:59.335Z,1.10
2022-10-17T01:28:35.560Z,0.98
2022-10-17T01:31:10.377Z,1.20
2022-10-17T01:33:46.605Z,1.20
2022-10-17T01:36:18.687Z,1.10
2022-10-17T01:38:48.346Z,1.00
2022-10-17T01:41:18.059Z,1.08
2022-10-17T01:43:47.958Z,1.10
2022-10-17T01:46:19.181Z,1.00
2022-10-17T01:48:48.603Z,0.95
2022-10-17T01:51:18.627Z,1.00
2022-10-17T01:53:48.324Z,1.15
2022-10-17T01:56:16.002Z,1.00
2022-10-17T01:58:45.269Z,1.00
2022-10-17T02:01:13.120Z,1.05
2022-10-17T02:03:42.265Z,1.00
2022-10-17T02:06:09.916Z,0.80
2022-10-17T02:08:42.415Z,1.10
2022-10-17T02:11:12.059Z,1.08
2022-10-17T02:13:44.670Z,0.90
2022-10-17T02:16:17.300Z,0.90
2022-10-17T02:18:56.464Z,0.90
2022-10-17T02:21:27.476Z,1.00
2022-10-17T02:23:56.251Z,1.10
2022-10-17T02:26:26.924Z,1.00
2022-10-17T02:28:59.272Z,1.10
2022-10-17T02:31:27.794Z,1.17
2022-10-17T02:33:57.787Z,1.05
2022-10-17T02:36:26.974Z,1.02
2022-10-17T02:38:54.875Z,0.88
2022-10-17T02:41:22.595Z,1.00
2022-10-17T02:43:52.408Z,1.00
2022-10-17T02:46:21.640Z,0.95
2022-10-17T02:48:51.043Z,1.20
2022-10-17T02:51:23.171Z,1.10
2022-10-17T02:53:54.106Z,1.15
2022-10-17T02:56:22.082Z,0.90
2022-10-17T02:58:51.904Z,1.10
2022-10-17T03:01:19.625Z,1.00
2022-10-17T03:03:47.447Z,1.10
2022-10-17T03:06:15.115Z,1.20
2022-10-17T03:08:44.099Z,1.10
2022-10-17T03:11:12.153Z,1.00
2022-10-17T03:13:40.295Z,1.05
2022-10-17T03:16:08.687Z,0.93
2022-10-17T03:18:36.733Z,1.00
2022-10-17T03:21:05.452Z,1.10
2022-10-17T03:23:33.260Z,0.90
2022-10-17T03:26:05.687Z,1.20
2022-10-17T03:28:34.864Z,0.98
2022-10-17T03:31:07.736Z,0.90
2022-10-17T03:33:35.561Z,1.00
2022-10-17T03:36:07.172Z,1.10
2022-10-17T03:38:35.147Z,0.80
2022-10-17T03:41:02.941Z,1.00
2022-10-17T03:43:32.173Z,1.00
2022-10-17T03:45:59.979Z,1.00
2022-10-17T03:48:27.860Z,0.88
2022-10-17T03:51:01.216Z,0.98
2022-10-17T03:53:29.449Z,0.85
2022-10-17T03:55:57.687Z,0.85
2022-10-17T03:58:25.396Z,0.93
2022-10-17T04:00:58.239Z,0.95
2022-10-17T04:03:26.554Z,0.77
2022-10-17T04:05:54.465Z,0.80
2022-10-17T04:08:22.294Z,1.00
2022-10-17T04:11:08.735Z,1.05
2022-10-17T04:13:36.939Z,1.10
2022-10-17T04:16:07.042Z,0.98
2022-10-17T04:18:37.747Z,0.90
2022-10-17T04:21:06.183Z,1.00
2022-10-17T04:23:34.141Z,1.08
2022-10-17T04:26:11.065Z,0.90
2022-10-17T04:31:10.091Z,1.10
2022-10-17T04:33:56.836Z,1.10
2022-10-17T04:36:24.644Z,0.95
2022-10-17T04:38:52.437Z,0.95
2022-10-17T04:41:20.607Z,0.90
2022-10-17T04:43:51.021Z,0.93
2022-10-17T04:46:21.511Z,1.00
2022-10-17T04:48:49.921Z,1.10
2022-10-17T04:51:20.613Z,1.08
2022-10-17T04:54:11.806Z,0.93
2022-10-17T04:56:43.051Z,0.95
2022-10-17T04:59:11.130Z,0.90
2022-10-17T05:01:42.062Z,1.00
2022-10-17T05:04:09.746Z,1.00
2022-10-17T05:06:37.980Z,0.90
2022-10-17T05:09:18.326Z,1.08
2022-10-17T05:11:46.627Z,1.00
2022-10-17T05:14:14.525Z,0.90
2022-10-17T05:16:43.515Z,0.88
2022-10-17T05:19:12.076Z,1.20
2022-10-17T05:21:45.499Z,0.80
2022-10-17T05:24:16.936Z,0.90
2022-10-17T05:26:44.600Z,0.93
2022-10-17T05:29:12.952Z,0.98
2022-10-17T05:31:47.442Z,0.80
2022-10-17T05:34:15.181Z,0.90
2022-10-17T05:36:43.513Z,0.95
2022-10-17T05:39:13.418Z,0.93
2022-10-17T05:41:41.480Z,0.80
2022-10-17T05:44:09.140Z,0.90
2022-10-17T05:46:43.091Z,0.80
2022-10-17T05:49:19.715Z,0.80
2022-10-17T05:52:00.547Z,0.90
2022-10-17T05:54:28.918Z,0.90
2022-10-17T05:56:57.170Z,1.00
2022-10-17T05:59:29.132Z,0.80
2022-10-17T06:02:02.578Z,0.98
2022-10-17T06:04:32.672Z,0.85
2022-10-17T06:07:02.538Z,1.02
2022-10-17T06:09:32.403Z,0.80
2022-10-17T06:12:00.209Z,0.93
2022-10-17T06:14:27.893Z,0.80
2022-10-17T06:17:01.084Z,1.00
2022-10-17T06:19:28.853Z,1.00
2022-10-17T06:21:58.429Z,0.80
2022-10-17T06:24:28.182Z,0.80
2022-10-17T06:26:55.995Z,0.93
2022-10-17T06:29:23.696Z,0.95
2022-10-17T06:31:53.010Z,0.82
2022-10-17T06:34:21.475Z,1.00
2022-10-17T06:36:49.708Z,0.80
2022-10-17T06:39:20.625Z,0.93
2022-10-17T06:42:04.019Z,0.80
2022-10-17T06:45:03.008Z,0.80
2022-10-17T06:47:40.566Z,0.90
2022-10-17T06:50:34.486Z,1.00
2022-10-17T06:53:21.912Z,0.70
2022-10-17T06:56:12.623Z,1.00
2022-10-17T06:58:58.991Z,1.10
2022-10-17T07:01:32.004Z,0.90
2022-10-17T07:04:01.459Z,0.98
2022-10-17T07:06:30.783Z,0.93
2022-10-17T07:09:03.242Z,0.90
2022-10-17T07:11:32.315Z,0.82
2022-10-17T07:13:59.992Z,0.77
2022-10-17T07:16:27.767Z,0.90
2022-10-17T07:19:03.852Z,0.90
2022-10-17T07:21:38.996Z,0.95
2022-10-17T07:24:08.282Z,0.80
2022-10-17T07:26:37.541Z,0.70
2022-10-17T07:29:06.417Z,0.90
2022-10-17T07:31:38.769Z,0.70
2022-10-17T07:34:06.501Z,1.10
2022-10-17T07:36:34.336Z,0.73
2022-10-17T07:39:05.414Z,0.90
2022-10-17T07:41:34.203Z,0.98
2022-10-17T07:44:03.310Z,0.90
2022-10-17T07:46:35.972Z,0.98
2022-10-17T07:49:03.714Z,0.88
2022-10-17T07:51:31.483Z,0.80
2022-10-17T07:53:59.147Z,0.70
2022-10-17T07:56:26.798Z,0.90
2022-10-17T07:58:54.604Z,0.90
2022-10-17T08:01:25.696Z,0.80
2022-10-17T08:03:53.377Z,0.85
2022-10-17T08:06:21.080Z,0.70
2022-10-17T08:08:48.758Z,0.90
2022-10-17T08:11:16.608Z,0.82
2022-10-17T08:13:44.244Z,0.77
2022-10-17T08:16:13.127Z,0.90
2022-10-17T08:18:42.859Z,0.80
2022-10-17T08:21:10.883Z,0.93
2022-10-17T08:23:38.552Z,0.93
2022-10-17T08:26:10.203Z,0.88
2022-10-17T08:28:38.255Z,1.05
2022-10-17T08:31:06.801Z,0.80
2022-10-17T08:33:34.527Z,0.80
2022-10-17T08:36:03.672Z,0.82
2022-10-17T08:38:35.099Z,0.82
2022-10-17T08:41:05.859Z,0.80
2022-10-17T08:43:40.248Z,0.70
2022-10-17T08:46:08.054Z,0.90
2022-10-17T08:48:42.621Z,0.95
2022-10-17T08:51:16.125Z,0.80
2022-10-17T08:53:46.398Z,0.90
2022-10-17T08:56:19.890Z,0.80
2022-10-17T08:58:52.512Z,0.90
2022-10-17T09:01:33.525Z,1.00
2022-10-17T09:04:17.113Z,1.00
2022-10-17T09:06:48.904Z,0.82
2022-10-17T09:09:23.599Z,0.80
2022-10-17T09:11:57.746Z,0.90
2022-10-17T09:15:09.100Z,0.80
2022-10-17T09:17:43.859Z,0.85
2022-10-17T09:20:12.988Z,0.70
2022-10-17T09:22:45.369Z,0.90
2022-10-17T09:25:14.672Z,0.88
2022-10-17T09:27:43.557Z,0.80
2022-10-17T09:30:44.758Z,0.70
2022-10-17T09:33:28.072Z,0.63
2022-10-17T09:36:02.046Z,0.80
2022-10-17T09:38:35.591Z,0.90
2022-10-17T09:41:04.711Z,1.70
2022-10-17T09:43:36.762Z,1.70
2022-10-17T09:46:08.187Z,1.52
2022-10-17T09:48:38.510Z,1.40
2022-10-17T09:51:21.908Z,1.25
2022-10-17T09:53:56.429Z,1.30
2022-10-17T09:56:24.084Z,1.52
2022-10-17T09:58:52.754Z,1.48
2022-10-17T10:01:24.138Z,1.67
2022-10-17T10:04:10.572Z,1.10
2022-10-17T10:06:38.585Z,1.40
2022-10-17T10:09:07.652Z,1.63
2022-10-17T10:11:46.630Z,1.50
2022-10-17T10:14:20.587Z,1.77
2022-10-17T10:16:49.814Z,1.48
2022-10-17T10:19:22.083Z,1.70
2022-10-17T10:21:56.320Z,1.40
2022-10-17T10:24:30.655Z,1.50
2022-10-17T10:26:59.675Z,1.70
2022-10-17T10:29:30.683Z,1.48
2022-10-17T10:31:59.637Z,1.40
2022-10-17T10:34:28.756Z,1.60
2022-10-17T10:36:59.436Z,1.30
2022-10-17T10:39:48.335Z,1.38
2022-10-17T10:42:27.371Z,1.52
2022-10-17T10:44:56.043Z,1.52
2022-10-17T10:47:26.127Z,1.33
2022-10-17T10:49:54.925Z,1.35
2022-10-17T10:52:28.583Z,1.38
2022-10-17T10:55:01.012Z,1.30
2022-10-17T10:57:30.412Z,1.00
2022-10-17T11:00:01.253Z,1.60
2022-10-17T11:02:31.814Z,1.35
2022-10-17T11:05:00.768Z,1.40
2022-10-17T11:07:31.023Z,1.30
2022-10-17T11:10:04.707Z,1.63
2022-10-17T11:12:34.381Z,1.42
2022-10-17T11:15:04.018Z,1.40
2022-10-17T11:17:34.159Z,1.50
2022-10-17T11:20:10.055Z,1.50
2022-10-17T11:22:39.558Z,1.40
2022-10-17T11:25:25.433Z,1.50
2022-10-17T11:27:53.072Z,1.40
2022-10-17T11:30:20.767Z,1.15
2022-10-17T11:32:50.490Z,1.00
2022-10-17T11:35:20.853Z,1.08
2022-10-17T11:37:50.927Z,1.23
2022-10-17T11:40:24.382Z,1.23
2022-10-17T11:42:54.348Z,1.17
2022-10-17T11:45:23.219Z,1.23
2022-10-17T11:47:54.185Z,1.10
2022-10-17T11:53:13.859Z,1.40
2022-10-17T11:55:42.904Z,1.30
2022-10-17T11:58:24.378Z,1.33
2022-10-17T12:00:55.987Z,1.38
2022-10-17T12:03:58.447Z,1.15
2022-10-17T12:06:37.778Z,1.40
2022-10-17T12:09:10.406Z,1.08
2022-10-17T12:11:46.464Z,1.20
2022-10-17T12:14:39.871Z,1.10
2022-10-17T12:17:21.977Z,1.13
2022-10-17T12:19:49.643Z,1.30
2022-10-17T12:22:22.483Z,1.25
2022-10-17T12:24:58.102Z,1.63
2022-10-17T12:27:37.440Z,1.10
2022-10-17T12:30:07.709Z,1.20
2022-10-17T12:33:03.805Z,1.08
2022-10-17T12:35:24.396Z,1.00
2022-10-17T12:38:15.131Z,1.17
2022-10-17T12:40:56.874Z,1.20
2022-10-17T12:43:48.784Z,1.10
2022-10-17T12:46:42.456Z,0.88
2022-10-17T12:49:36.950Z,1.38
2022-10-17T12:52:19.192Z,1.20
2022-10-17T12:55:00.202Z,1.20
2022-10-17T12:57:37.689Z,1.23
2022-10-17T13:00:16.026Z,1.00
2022-10-17T13:02:43.701Z,1.20
2022-10-17T13:05:15.427Z,1.00
2022-10-17T13:07:44.082Z,1.23
2022-10-17T13:10:22.481Z,1.10
2022-10-17T13:12:50.462Z,1.00
2022-10-17T13:15:20.378Z,1.30
2022-10-17T13:17:56.720Z,1.10
2022-10-17T13:20:30.606Z,1.20
2022-10-17T13:22:59.620Z,1.08
2022-10-17T13:25:27.776Z,0.95
2022-10-17T13:28:06.366Z,1.08
2022-10-17T13:30:36.876Z,1.27
2022-10-17T13:33:04.632Z,1.20
2022-10-17T13:36:00.095Z,1.02
2022-10-17T13:38:21.038Z,1.30
2022-10-17T13:40:50.351Z,0.90
2022-10-17T13:43:19.515Z,1.10
2022-10-17T13:45:50.444Z,1.13
2022-10-17T13:48:20.598Z,1.10
2022-10-17T13:50:50.066Z,1.17
2022-10-17T13:53:20.094Z,1.33
2022-10-17T13:56:22.799Z,1.10
2022-10-17T13:58:48.296Z,1.33
2022-10-17T14:01:17.396Z,1.10
2022-10-17T14:03:48.611Z,1.00
2022-10-17T14:06:18.537Z,1.17
2022-10-17T14:08:55.364Z,1.10
2022-10-17T14:11:29.061Z,1.00
2022-10-17T14:13:56.840Z,1.13
2022-10-17T14:16:26.280Z,0.90
2022-10-17T14:18:53.982Z,0.95
2022-10-17T14:21:43.311Z,1.08
2022-10-17T14:24:25.139Z,1.20
2022-10-17T14:26:53.949Z,1.20
2022-10-17T14:29:24.151Z,1.27
2022-10-17T14:32:04.771Z,1.30
2022-10-17T14:34:34.580Z,1.00
2022-10-17T14:37:02.286Z,1.00
2022-10-17T14:39:29.953Z,1.20
2022-10-17T14:42:02.017Z,0.98
2022-10-17T14:44:32.891Z,1.23
2022-10-17T14:47:18.177Z,1.00
2022-10-17T14:49:51.150Z,1.10
2022-10-17T14:52:29.643Z,1.10
2022-10-17T14:54:57.809Z,0.90
2022-10-17T14:57:27.892Z,1.30
2022-10-17T14:59:56.181Z,0.95
2022-10-17T15:02:25.613Z,1.00
2022-10-17T15:04:53.316Z,1.00
2022-10-17T15:07:22.071Z,1.05
2022-10-17T15:09:50.887Z,1.00
2022-10-17T15:12:20.057Z,0.90
2022-10-17T15:14:48.378Z,1.02
2022-10-17T15:17:18.427Z,1.30
2022-10-17T15:19:47.453Z,1.10
2022-10-17T15:22:15.999Z,1.20
2022-10-17T15:24:43.677Z,1.30
2022-10-17T15:27:15.752Z,1.05
2022-10-17T15:29:43.402Z,1.20
2022-10-17T15:32:11.048Z,1.10
2022-10-17T15:34:38.739Z,1.08
2022-10-17T15:37:07.794Z,1.10
2022-10-17T15:39:35.508Z,1.00
2022-10-17T15:42:03.171Z,1.02
2022-10-17T15:44:31.259Z,1.00
2022-10-17T15:46:58.901Z,1.13
2022-10-17T15:49:26.551Z,1.13
2022-10-17T15:51:55.429Z,0.90
2022-10-17T15:54:24.541Z,0.95
2022-10-17T15:56:54.636Z,1.10
2022-10-17T15:59:24.008Z,1.05
2022-10-17T16:01:51.657Z,1.17
2022-10-17T16:04:19.306Z,1.02
2022-10-17T16:06:46.975Z,1.13
2022-10-17T16:09:14.615Z,1.00
2022-10-17T16:11:43.947Z,1.00
2022-10-17T16:14:12.564Z,1.00
2022-10-17T16:16:40.512Z,1.17
2022-10-17T16:19:08.177Z,1.10
2022-10-17T16:21:36.909Z,1.20
2022-10-17T16:24:04.906Z,1.00
2022-10-17T16:26:32.646Z,0.90
2022-10-17T16:29:02.970Z,1.30
2022-10-17T16:31:33.057Z,1.17
2022-10-17T16:34:01.263Z,1.13
2022-10-17T16:36:28.910Z,1.00
2022-10-17T16:38:56.582Z,1.23
2022-10-17T16:41:25.281Z,1.10
2022-10-17T16:43:53.752Z,1.20
2022-10-17T16:46:22.866Z,1.05
2022-10-17T16:48:50.670Z,1.10
2022-10-17T16:51:19.286Z,1.00
2022-10-17T16:53:47.044Z,1.00
2022-10-17T16:56:16.300Z,1.10
2022-10-17T16:58:43.966Z,1.00
2022-10-17T17:01:12.949Z,1.02
2022-10-17T17:03:42.800Z,1.08
2022-10-17T17:06:12.677Z,1.00
2022-10-17T17:08:40.406Z,0.95
2022-10-17T17:11:08.269Z,1.10
2022-10-17T17:13:35.948Z,1.00
2022-10-17T17:16:04.846Z,1.13
2022-10-17T17:18:32.544Z,1.10
2022-10-17T17:21:02.031Z,1.00
2022-10-17T17:23:29.875Z,0.82
2022-10-17T17:25:58.907Z,1.15
2022-10-17T17:28:27.013Z,1.20
2022-10-17T17:30:54.867Z,1.20
2022-10-17T17:33:22.555Z,1.10
2022-10-17T17:35:55.297Z,0.95
2022-10-17T17:38:24.393Z,1.00
2022-10-17T17:40:52.129Z,1.10
2022-10-17T17:43:19.910Z,1.10
2022-10-17T17:45:47.552Z,1.00
2022-10-17T17:48:15.296Z,1.00
2022-10-17T17:50:43.343Z,1.17
2022-10-17T17:53:11.316Z,0.90
2022-10-17T17:55:40.285Z,1.13
2022-10-17T17:58:08.165Z,0.95
2022-10-17T18:00:35.950Z,0.90
2022-10-17T18:03:03.749Z,0.90
2022-10-17T18:05:31.634Z,1.08
2022-10-17T18:07:59.465Z,1.00
2022-10-17T18:10:28.838Z,0.98
2022-10-17T18:12:57.849Z,1.08
2022-10-17T18:15:25.512Z,1.00
2022-10-17T18:17:53.177Z,1.13
2022-10-17T18:20:20.810Z,1.10
2022-10-17T18:22:48.447Z,1.08
2022-10-17T18:25:16.170Z,1.08
2022-10-17T18:27:43.850Z,1.00
2022-10-17T18:30:14.022Z,1.00
2022-10-17T18:32:41.730Z,1.00
2022-10-17T18:35:10.165Z,1.00
2022-10-17T18:37:37.880Z,1.05
2022-10-17T18:40:06.614Z,1.08
2022-10-17T18:42:34.260Z,1.02
2022-10-17T18:45:03.186Z,1.00
2022-10-17T18:47:32.427Z,1.10
2022-10-17T18:50:00.196Z,1.15
2022-10-17T18:52:27.849Z,1.15
2022-10-17T18:54:55.521Z,1.10
2022-10-17T18:57:26.055Z,1.00
2022-10-17T18:59:54.067Z,1.00
2022-10-17T19:02:21.740Z,1.00
2022-10-17T19:04:50.706Z,1.00
2022-10-17T19:07:20.016Z,1.00
2022-10-17T19:09:49.076Z,1.20
2022-10-17T19:12:16.821Z,0.90
2022-10-17T19:14:44.456Z,1.02
2022-10-17T19:17:12.110Z,1.00
2022-10-17T19:19:42.645Z,1.00
2022-10-17T19:22:11.709Z,1.10
2022-10-17T19:24:39.583Z,0.73
2022-10-17T19:27:07.246Z,1.10
2022-10-17T19:29:34.901Z,1.02
2022-10-17T19:32:02.633Z,0.95
2022-10-17T19:34:30.505Z,1.02
2022-10-17T19:36:58.146Z,1.00
2022-10-17T19:39:27.192Z,1.10
2022-10-17T19:41:54.851Z,1.00
2022-10-17T19:44:22.527Z,1.02
2022-10-17T19:46:50.181Z,1.00
2022-10-17T19:49:17.952Z,1.20
2022-10-17T19:51:45.704Z,1.00
2022-10-17T19:54:14.945Z,1.10
2022-10-17T19:56:43.935Z,0.90
2022-10-17T19:59:12.428Z,1.05
2022-10-17T20:01:40.180Z,1.00
2022-10-17T20:04:08.419Z,1.00
2022-10-17T20:06:36.106Z,0.90
2022-10-17T20:09:03.835Z,1.00
2022-10-17T20:11:31.779Z,1.10
2022-10-17T20:14:01.654Z,1.00
2022-10-17T20:16:30.351Z,1.10
2022-10-17T20:18:58.696Z,0.98
2022-10-17T20:21:28.625Z,1.00
2022-10-17T20:23:56.342Z,1.30
2022-10-17T20:26:36.627Z,1.10
2022-10-17T20:29:10.688Z,1.00
2022-10-17T20:31:38.823Z,1.00
2022-10-17T20:34:06.466Z,0.90
2022-10-17T20:36:36.838Z,0.90
2022-10-17T20:39:05.188Z,0.98
2022-10-17T20:41:32.865Z,1.20
2022-10-17T20:44:00.508Z,1.00
2022-10-17T20:46:36.976Z,1.15
2022-10-17T20:49:05.792Z,1.02
2022-10-17T20:51:33.796Z,0.90
2022-10-17T20:54:02.396Z,1.00
2022-10-17T20:56:31.151Z,1.10
2022-10-17T20:58:59.676Z,1.02
2022-10-17T21:01:29.165Z,1.13
2022-10-17T21:03:59.721Z,0.95
2022-10-17T21:06:30.224Z,1.08
2022-10-17T21:08:57.878Z,1.15
2022-10-17T21:11:26.704Z,1.00
2022-10-17T21:13:58.373Z,1.10
2022-10-17T21:16:26.083Z,0.98
2022-10-17T21:18:55.706Z,1.00
2022-10-17T21:21:24.610Z,1.00
2022-10-17T21:23:52.379Z,0.90
2022-10-17T21:26:20.050Z,1.10
2022-10-17T21:28:48.376Z,0.90
2022-10-17T21:31:17.099Z,1.02
2022-10-17T21:33:45.544Z,0.90
2022-10-17T21:36:16.260Z,0.90
2022-10-17T21:38:44.192Z,1.00
2022-10-17T21:41:12.613Z,1.10
2022-10-17T21:43:40.363Z,1.20
2022-10-17T21:46:09.069Z,0.90
2022-10-17T21:48:36.744Z,1.00
2022-10-17T21:51:06.123Z,1.02
2022-10-17T21:53:35.358Z,0.90
2022-10-17T21:56:03.305Z,0.98
2022-10-17T21:58:31.048Z,1.08
2022-10-17T22:01:04.796Z,0.90
2022-10-17T22:03:33.964Z,1.00
2022-10-17T22:06:12.977Z,0.90
2022-10-17T22:08:50.594Z,1.00
2022-10-17T22:11:19.426Z,0.80
2022-10-17T22:13:47.087Z,1.00
2022-10-17T22:16:16.064Z,0.80
2022-10-17T22:18:43.830Z,0.80
2022-10-17T22:21:13.099Z,1.05
2022-10-17T22:23:40.850Z,0.75
2022-10-17T22:26:10.245Z,1.00
2022-10-17T22:28:38.167Z,1.10
2022-10-17T22:31:06.161Z,1.02
2022-10-17T22:33:33.946Z,0.90
2022-10-17T22:36:01.591Z,1.00
2022-10-17T22:38:29.246Z,0.98
2022-10-17T22:40:56.907Z,1.10
2022-10-17T22:43:25.988Z,0.80
2022-10-17T22:45:53.910Z,0.90
2022-10-17T22:48:21.624Z,1.20
2022-10-17T22:50:49.286Z,0.80
2022-10-17T22:53:22.846Z,0.90
2022-10-17T22:55:53.869Z,0.90
2022-10-17T22:58:21.740Z,0.93
2022-10-17T23:00:51.088Z,1.00
2022-10-17T23:03:18.908Z,1.05
2022-10-17T23:05:46.619Z,1.00
2022-10-17T23:08:14.554Z,0.90
2022-10-17T23:10:42.284Z,1.08
2022-10-17T23:13:09.964Z,1.15
2022-10-17T23:15:37.645Z,0.98
2022-10-17T23:18:06.619Z,0.90
2022-10-17T23:20:34.282Z,1.00
2022-10-17T23:23:01.915Z,1.00
2022-10-17T23:25:29.564Z,0.80
2022-10-17T23:27:57.196Z,0.90
2022-10-17T23:30:25.004Z,0.90
2022-10-17T23:32:52.648Z,1.00
2022-10-17T23:35:21.636Z,0.90
2022-10-17T23:37:49.293Z,1.00
2022-10-17T23:40:16.979Z,0.80
2022-10-17T23:42:44.972Z,0.90
2022-10-17T23:45:12.651Z,0.90
2022-10-17T23:47:40.305Z,0.85
2022-10-17T23:50:08.691Z,0.90
2022-10-17T23:52:37.672Z,1.10
2022-10-17T23:55:06.032Z,0.80
2022-10-17T23:57:34.124Z,0.90
